Time;durP1;ratioP1;P1;durP2;ratioP2;P2;SDS_P1;SDS_P2;PMS_P1;PMS_P2;Temp;Humidity;BMP_temperature;BMP_pressure;BME280_temperature;BME280_humidity;BME280_pressure;Samples;Min_cycle;Max_cycle;Signal;HPM_P1;HPM_P2
2021/10/19 00:01:58;;;;;;;12.95;11.65;;;;;;;;;;5104490;28;24736;-60
2021/10/19 00:04:23;;;;;;;12.80;11.60;;;;;;;;;;5102304;28;24446;-59
2021/10/19 00:06:49;;;;;;;12.90;11.70;;;;;;;;;;5102226;28;24455;-59
2021/10/19 00:09:14;;;;;;;12.57;11.37;;;;;;;;;;5100814;28;24903;-59
2021/10/19 00:11:39;;;;;;;12.90;11.70;;;;;;;;;;5105651;28;24760;-60
2021/10/19 00:14:04;;;;;;;13.23;12.02;;;;;;;;;;5104041;28;25218;-59
2021/10/19 00:16:29;;;;;;;12.33;11.23;;;;;;;;;;5105326;28;24535;-59
2021/10/19 00:18:55;;;;;;;12.48;11.38;;;;;;;;;;5103625;28;24393;-59
2021/10/19 00:21:20;;;;;;;12.90;11.60;;;;;;;;;;5100142;28;24406;-60
2021/10/19 00:23:45;;;;;;;13.27;12.07;;;;;;;;;;5100241;28;24427;-60
2021/10/19 00:26:10;;;;;;;12.65;11.45;;;;;;;;;;5101548;28;24401;-59
2021/10/19 00:28:36;;;;;;;12.87;11.73;;;;;;;;;;5104947;28;24397;-60
2021/10/19 00:31:02;;;;;;;13.18;11.98;;;;;;;;;;5103275;28;24429;-60
2021/10/19 00:33:27;;;;;;;14.47;13.07;;;;;;;;;;5105470;28;24534;-60
2021/10/19 00:35:52;;;;;;;13.20;11.90;;;;;;;;;;5105258;28;25292;-59
2021/10/19 00:38:17;;;;;;;13.73;12.27;;;;;;;;;;5100963;28;24459;-60
2021/10/19 00:40:42;;;;;;;13.27;12.00;;;;;;;;;;5099136;28;24467;-60
2021/10/19 00:43:07;;;;;;;13.63;12.27;;;;;;;;;;5101400;28;24377;-60
2021/10/19 00:45:34;;;;;;;13.43;12.13;;;;;;;;;;5104753;28;24524;-60
2021/10/19 00:47:59;;;;;;;15.60;14.20;;;;;;;;;;5103383;28;24382;-60
2021/10/19 00:50:24;;;;;;;16.50;15.10;;;;;;;;;;5101465;28;24969;-60
2021/10/19 00:52:49;;;;;;;15.52;14.15;;;;;;;;;;5101324;28;24402;-59
2021/10/19 00:55:15;;;;;;;15.67;14.10;;;;;;;;;;5099378;28;24377;-60
2021/10/19 00:57:40;;;;;;;14.23;12.93;;;;;;;;;;5090071;28;24948;-60
2021/10/19 01:00:07;;;;;;;14.27;12.98;;;;;;;;;;5084466;28;24603;-60
2021/10/19 01:02:32;;;;;;;14.43;13.13;;;;;;;;;;5084398;28;24502;-60
2021/10/19 01:04:57;;;;;;;14.90;13.50;;;;;;;;;;5084476;28;24387;-60
2021/10/19 01:07:23;;;;;;;13.75;12.55;;;;;;;;;;5078994;28;24433;-60
2021/10/19 01:09:48;;;;;;;14.40;13.00;;;;;;;;;;5078638;28;24986;-60
2021/10/19 01:12:13;;;;;;;13.10;11.90;;;;;;;;;;5081082;28;24387;-60
2021/10/19 01:14:38;;;;;;;13.95;12.55;;;;;;;;;;5084036;28;24415;-59
2021/10/19 01:17:04;;;;;;;14.10;12.80;;;;;;;;;;5082073;28;24441;-60
2021/10/19 01:19:30;;;;;;;13.70;12.50;;;;;;;;;;5082483;28;24422;-60
2021/10/19 01:21:56;;;;;;;13.43;12.13;;;;;;;;;;5080478;28;24439;-60
2021/10/19 01:24:22;;;;;;;14.52;13.13;;;;;;;;;;5078713;28;24448;-60
2021/10/19 01:26:47;;;;;;;13.40;12.20;;;;;;;;;;5081925;28;24402;-60
2021/10/19 01:29:13;;;;;;;13.40;12.20;;;;;;;;;;5084152;28;24394;-60
2021/10/19 01:31:38;;;;;;;13.82;12.43;;;;;;;;;;5083715;28;24994;-60
2021/10/19 01:34:03;;;;;;;14.30;13.05;;;;;;;;;;5082345;28;24417;-60
2021/10/19 01:36:28;;;;;;;13.65;12.35;;;;;;;;;;5078451;28;24420;-60
2021/10/19 01:38:53;;;;;;;13.95;12.65;;;;;;;;;;5080119;28;24448;-59
2021/10/19 01:41:18;;;;;;;13.20;12.00;;;;;;;;;;5082186;28;24888;-60
2021/10/19 01:43:44;;;;;;;14.10;12.70;;;;;;;;;;5084220;28;24424;-59
2021/10/19 01:46:09;;;;;;;13.20;11.90;;;;;;;;;;5081890;28;24928;-60
2021/10/19 01:48:34;;;;;;;13.45;12.25;;;;;;;;;;5083639;28;24745;-60
2021/10/19 01:51:00;;;;;;;12.70;11.50;;;;;;;;;;5080222;28;24811;-60
2021/10/19 01:53:25;;;;;;;13.05;11.85;;;;;;;;;;5078208;28;24955;-60
2021/10/19 01:55:50;;;;;;;12.90;11.80;;;;;;;;;;5079922;28;24407;-59
2021/10/19 01:58:21;;;;;;;13.15;11.95;;;;;;;;;;5099435;28;24420;-60
2021/10/19 02:00:47;;;;;;;12.05;10.95;;;;;;;;;;5103873;28;24436;-60
2021/10/19 02:03:12;;;;;;;13.27;11.97;;;;;;;;;;5102494;28;24803;-60
2021/10/19 02:05:37;;;;;;;13.27;12.10;;;;;;;;;;5100034;28;24386;-60
2021/10/19 02:08:03;;;;;;;13.70;12.50;;;;;;;;;;5100607;28;24478;-60
2021/10/19 02:10:29;;;;;;;13.33;12.03;;;;;;;;;;5100600;28;25000;-60
2021/10/19 02:12:54;;;;;;;12.87;11.67;;;;;;;;;;5103597;28;24511;-59
2021/10/19 02:15:24;;;;;;;14.10;12.80;;;;;;;;;;5101668;28;24501;-60
2021/10/19 02:17:49;;;;;;;14.43;13.02;;;;;;;;;;5103846;28;24467;-60
2021/10/19 02:20:14;;;;;;;14.10;12.70;;;;;;;;;;5100462;28;24427;-60
2021/10/19 02:22:39;;;;;;;14.65;13.25;;;;;;;;;;5098409;28;24385;-59
2021/10/19 02:25:05;;;;;;;14.40;13.00;;;;;;;;;;5099990;28;24428;-60
2021/10/19 02:27:30;;;;;;;13.63;12.32;;;;;;;;;;5103987;28;24439;-60
2021/10/19 02:29:55;;;;;;;13.53;12.23;;;;;;;;;;5103405;28;24978;-60
2021/10/19 02:32:20;;;;;;;13.77;12.47;;;;;;;;;;5102114;28;24395;-60
2021/10/19 02:34:45;;;;;;;12.97;11.67;;;;;;;;;;5102049;28;24405;-60
2021/10/19 02:37:11;;;;;;;12.80;11.60;;;;;;;;;;5097896;28;24417;-60
2021/10/19 02:39:36;;;;;;;12.37;11.17;;;;;;;;;;5099717;28;24740;-60
2021/10/19 02:42:01;;;;;;;13.27;12.07;;;;;;;;;;5101732;28;24759;-60
2021/10/19 02:44:26;;;;;;;11.80;10.70;;;;;;;;;;5103702;28;24471;-59
2021/10/19 02:46:51;;;;;;;14.27;12.93;;;;;;;;;;5103362;28;24408;-59
2021/10/19 02:49:16;;;;;;;13.13;11.93;;;;;;;;;;5101551;28;24755;-60
2021/10/19 02:51:42;;;;;;;14.07;12.73;;;;;;;;;;5098202;28;24397;-60
2021/10/19 02:54:07;;;;;;;13.70;12.40;;;;;;;;;;5098228;28;24532;-59
2021/10/19 02:56:32;;;;;;;14.43;13.03;;;;;;;;;;5101760;28;24571;-59
2021/10/19 02:58:57;;;;;;;12.90;11.70;;;;;;;;;;5081091;28;24447;-59
2021/10/19 03:01:22;;;;;;;13.23;12.13;;;;;;;;;;5083200;28;24397;-60
2021/10/19 03:03:47;;;;;;;13.00;11.80;;;;;;;;;;5084147;28;24416;-60
2021/10/19 03:06:13;;;;;;;11.88;10.77;;;;;;;;;;5081320;28;24398;-59
2021/10/19 03:08:38;;;;;;;12.40;11.30;;;;;;;;;;5081570;28;24398;-59
2021/10/19 03:11:03;;;;;;;11.50;10.40;;;;;;;;;;5086183;28;24408;-59
2021/10/19 03:13:28;;;;;;;12.07;11.00;;;;;;;;;;5086658;28;24464;-59
2021/10/19 03:15:54;;;;;;;12.93;11.73;;;;;;;;;;5086240;28;24417;-60
2021/10/19 03:18:19;;;;;;;12.30;11.20;;;;;;;;;;5084365;28;24944;-59
2021/10/19 03:20:44;;;;;;;11.77;10.73;;;;;;;;;;5080781;28;24801;-60
2021/10/19 03:23:10;;;;;;;11.63;10.52;;;;;;;;;;5080830;28;24776;-59
2021/10/19 03:25:35;;;;;;;12.83;11.53;;;;;;;;;;5083991;28;25206;-59
2021/10/19 03:28:00;;;;;;;12.80;11.60;;;;;;;;;;5084368;28;24402;-59
2021/10/19 03:30:26;;;;;;;13.17;11.87;;;;;;;;;;5086161;28;24472;-60
2021/10/19 03:32:51;;;;;;;12.50;11.40;;;;;;;;;;5085993;28;24445;-59
2021/10/19 03:35:16;;;;;;;12.35;11.25;;;;;;;;;;5082705;28;24816;-60
2021/10/19 03:37:41;;;;;;;13.07;11.87;;;;;;;;;;5080632;28;24949;-59
2021/10/19 03:40:06;;;;;;;12.70;11.50;;;;;;;;;;5082049;28;24444;-60
2021/10/19 03:42:32;;;;;;;12.80;11.70;;;;;;;;;;5085483;28;24540;-60
2021/10/19 03:44:57;;;;;;;12.53;11.43;;;;;;;;;;5085804;28;24398;-60
2021/10/19 03:47:22;;;;;;;13.10;11.90;;;;;;;;;;5084087;28;24409;-60
2021/10/19 03:49:47;;;;;;;12.65;11.45;;;;;;;;;;5081735;28;24414;-60
2021/10/19 03:52:12;;;;;;;13.98;12.60;;;;;;;;;;5080518;28;24403;-60
2021/10/19 03:54:37;;;;;;;12.75;11.55;;;;;;;;;;5081916;28;24963;-59
2021/10/19 03:57:05;;;;;;;13.13;11.93;;;;;;;;;;5091282;28;24526;-60
2021/10/19 03:59:30;;;;;;;13.70;12.40;;;;;;;;;;5106087;28;24393;-60
2021/10/19 04:01:55;;;;;;;11.47;10.57;;;;;;;;;;5105956;28;24425;-60
2021/10/19 04:04:21;;;;;;;12.70;11.50;;;;;;;;;;5102497;28;24480;-60
2021/10/19 04:06:46;;;;;;;11.90;10.90;;;;;;;;;;5100301;28;24413;-60
2021/10/19 04:09:11;;;;;;;11.50;10.40;;;;;;;;;;5102099;28;24946;-60
2021/10/19 04:11:36;;;;;;;12.63;11.43;;;;;;;;;;5105566;28;24470;-60
2021/10/19 04:14:01;;;;;;;12.45;11.35;;;;;;;;;;5103794;28;25192;-60
2021/10/19 04:16:26;;;;;;;12.35;11.27;;;;;;;;;;5105552;28;24454;-60
2021/10/19 04:18:52;;;;;;;12.13;11.13;;;;;;;;;;5103522;28;24392;-60
2021/10/19 04:21:17;;;;;;;12.30;11.20;;;;;;;;;;5100192;28;24919;-60
2021/10/19 04:23:42;;;;;;;13.10;11.90;;;;;;;;;;5099937;28;24394;-59
2021/10/19 04:26:07;;;;;;;12.57;11.38;;;;;;;;;;5105445;28;24394;-60
2021/10/19 04:28:33;;;;;;;12.37;11.27;;;;;;;;;;5105453;28;24817;-60
2021/10/19 04:30:58;;;;;;;13.38;12.18;;;;;;;;;;5103328;28;24413;-60
2021/10/19 04:33:23;;;;;;;13.20;11.90;;;;;;;;;;5103732;28;24398;-60
2021/10/19 04:35:48;;;;;;;13.93;12.63;;;;;;;;;;5101619;28;24492;-59
2021/10/19 04:38:13;;;;;;;13.67;12.27;;;;;;;;;;5099873;28;24990;-61
2021/10/19 04:40:38;;;;;;;13.53;12.23;;;;;;;;;;5103413;28;24475;-61
2021/10/19 04:43:04;;;;;;;12.80;11.60;;;;;;;;;;5102712;28;24392;-61
2021/10/19 04:45:29;;;;;;;13.50;12.20;;;;;;;;;;5105065;28;24394;-59
2021/10/19 04:47:55;;;;;;;13.00;11.80;;;;;;;;;;5104895;28;24806;-59
2021/10/19 04:50:21;;;;;;;14.35;13.00;;;;;;;;;;5101425;28;24417;-59
2021/10/19 04:52:46;;;;;;;13.00;11.80;;;;;;;;;;5099561;28;24849;-59
2021/10/19 04:55:11;;;;;;;12.82;11.52;;;;;;;;;;5101326;28;25007;-59
2021/10/19 04:57:36;;;;;;;13.05;11.75;;;;;;;;;;5094062;28;24999;-59
2021/10/19 05:00:02;;;;;;;13.80;12.60;;;;;;;;;;5082793;28;24386;-59
2021/10/19 05:02:27;;;;;;;13.02;11.73;;;;;;;;;;5084377;28;24750;-59
2021/10/19 05:04:52;;;;;;;13.20;11.90;;;;;;;;;;5082491;28;24433;-59
2021/10/19 05:07:17;;;;;;;13.60;11.95;;;;;;;;;;5078671;28;24939;-59
2021/10/19 05:09:42;;;;;;;12.43;11.30;;;;;;;;;;5078488;28;24439;-59
2021/10/19 05:12:08;;;;;;;14.00;12.60;;;;;;;;;;5080618;28;24417;-59
2021/10/19 05:14:34;;;;;;;13.87;12.57;;;;;;;;;;5083555;28;24924;-59
2021/10/19 05:16:59;;;;;;;12.30;11.20;;;;;;;;;;5082422;28;24571;-60
2021/10/19 05:19:24;;;;;;;13.10;11.90;;;;;;;;;;5082060;28;24405;-59
2021/10/19 05:21:49;;;;;;;14.47;13.00;;;;;;;;;;5080507;28;24412;-59
2021/10/19 05:24:14;;;;;;;14.13;12.73;;;;;;;;;;5078660;28;24501;-59
2021/10/19 05:26:39;;;;;;;13.37;12.17;;;;;;;;;;5082880;28;24516;-60
2021/10/19 05:29:04;;;;;;;13.95;12.55;;;;;;;;;;5082067;28;24444;-59
2021/10/19 05:31:30;;;;;;;14.65;12.95;;;;;;;;;;5083918;28;24424;-59
2021/10/19 05:33:55;;;;;;;14.67;13.27;;;;;;;;;;5083729;28;25056;-59
2021/10/19 05:36:20;;;;;;;13.40;12.10;;;;;;;;;;5078278;28;24456;-59
2021/10/19 05:38:45;;;;;;;15.43;13.98;;;;;;;;;;5078314;28;24483;-59
2021/10/19 05:41:10;;;;;;;14.35;12.98;;;;;;;;;;5082214;28;24761;-60
2021/10/19 05:43:35;;;;;;;14.33;13.00;;;;;;;;;;5083568;28;24967;-60
2021/10/19 05:46:01;;;;;;;13.13;11.93;;;;;;;;;;5082413;28;24390;-59
2021/10/19 05:48:26;;;;;;;14.17;12.77;;;;;;;;;;5083656;28;24459;-59
2021/10/19 05:50:51;;;;;;;13.43;12.13;;;;;;;;;;5079607;28;24747;-60
2021/10/19 05:53:16;;;;;;;14.05;12.63;;;;;;;;;;5078366;28;24891;-59
2021/10/19 05:55:42;;;;;;;14.70;13.20;;;;;;;;;;5080001;28;24402;-59
2021/10/19 05:58:07;;;;;;;14.97;13.57;;;;;;;;;;5098012;28;25050;-60
2021/10/19 06:00:32;;;;;;;14.35;13.00;;;;;;;;;;5104328;28;24445;-59
2021/10/19 06:02:58;;;;;;;15.18;13.68;;;;;;;;;;5103697;28;24382;-59
2021/10/19 06:05:23;;;;;;;14.90;13.30;;;;;;;;;;5098787;28;24883;-59
2021/10/19 06:07:50;;;;;;;14.05;12.75;;;;;;;;;;5098628;28;24386;-59
2021/10/19 06:10:19;;;;;;;14.65;13.15;;;;;;;;;;5102034;28;24409;-59
2021/10/19 06:12:44;;;;;;;15.02;13.63;;;;;;;;;;5103809;28;24476;-59
2021/10/19 06:15:09;;;;;;;14.18;12.88;;;;;;;;;;5101917;28;24406;-60
2021/10/19 06:17:35;;;;;;;15.30;13.80;;;;;;;;;;5103716;28;24417;-59
2021/10/19 06:20:00;;;;;;;14.40;13.00;;;;;;;;;;5100345;28;24393;-59
2021/10/19 06:22:25;;;;;;;12.80;11.60;;;;;;;;;;5098585;28;25928;-60
2021/10/19 06:24:50;;;;;;;14.80;13.32;;;;;;;;;;5099908;28;24819;-59
2021/10/19 06:27:15;;;;;;;13.67;12.13;;;;;;;;;;5103583;28;24793;-58
2021/10/19 06:29:40;;;;;;;14.73;13.23;;;;;;;;;;5103452;28;24408;-58
2021/10/19 06:32:06;;;;;;;13.50;12.30;;;;;;;;;;5102123;28;24394;-59
2021/10/19 06:34:31;;;;;;;14.57;13.20;;;;;;;;;;5098406;28;24393;-59
2021/10/19 06:36:57;;;;;;;12.70;11.50;;;;;;;;;;5101236;28;24430;-59
2021/10/19 06:39:22;;;;;;;15.45;13.85;;;;;;;;;;5103782;28;24454;-59
2021/10/19 06:41:47;;;;;;;15.77;14.27;;;;;;;;;;5107478;28;24402;-59
2021/10/19 06:44:12;;;;;;;15.57;14.17;;;;;;;;;;5105763;28;24877;-59
2021/10/19 06:46:39;;;;;;;15.07;13.67;;;;;;;;;;5107195;28;24924;-59
2021/10/19 06:49:04;;;;;;;15.80;14.30;;;;;;;;;;5105645;28;24394;-59
2021/10/19 06:51:29;;;;;;;16.45;14.88;;;;;;;;;;5102065;28;24388;-60
2021/10/19 06:53:54;;;;;;;15.43;14.02;;;;;;;;;;5103105;28;24535;-59
2021/10/19 06:56:19;;;;;;;14.47;13.13;;;;;;;;;;5105692;28;24371;-59
2021/10/19 06:58:44;;;;;;;12.60;11.30;;;;;;;;;;5086545;28;24480;-59
2021/10/19 07:01:10;;;;;;;16.07;14.37;;;;;;;;;;5084977;28;24465;-60
2021/10/19 07:03:35;;;;;;;13.77;12.40;;;;;;;;;;5084995;28;24382;-60
2021/10/19 07:06:05;;;;;;;15.60;14.07;;;;;;;;;;5083223;28;24418;-60
2021/10/19 07:08:30;;;;;;;16.20;14.60;;;;;;;;;;5082835;28;24397;-60
2021/10/19 07:10:55;;;;;;;16.20;14.67;;;;;;;;;;5084407;28;24501;-60
2021/10/19 07:13:24;;;;;;;16.67;15.00;;;;;;;;;;5086593;28;24963;-60
2021/10/19 07:15:53;;;;;;;16.50;14.90;;;;;;;;;;5086358;28;24410;-60
2021/10/19 07:18:18;;;;;;;15.70;14.20;;;;;;;;;;5082668;28;24568;-60
2021/10/19 07:20:44;;;;;;;14.37;12.90;;;;;;;;;;5080759;28;24473;-60
2021/10/19 07:23:09;;;;;;;13.90;12.60;;;;;;;;;;5082732;28;24601;-60
2021/10/19 07:25:34;;;;;;;16.25;14.65;;;;;;;;;;5084334;28;24459;-60
2021/10/19 07:28:00;;;;;;;14.07;12.73;;;;;;;;;;5084212;28;24934;-60
2021/10/19 07:30:25;;;;;;;13.70;12.40;;;;;;;;;;5085980;28;24415;-60
2021/10/19 07:32:50;;;;;;;13.47;12.07;;;;;;;;;;5084490;28;24467;-60
2021/10/19 07:35:17;;;;;;;14.13;12.73;;;;;;;;;;5080586;28;24505;-60
2021/10/19 07:37:43;;;;;;;15.57;14.18;;;;;;;;;;5080331;28;24403;-60
2021/10/19 07:40:08;;;;;;;17.13;15.53;;;;;;;;;;5083983;28;24420;-60
2021/10/19 07:42:34;;;;;;;14.20;12.80;;;;;;;;;;5085957;28;24451;-60
2021/10/19 07:45:03;;;;;;;13.63;12.43;;;;;;;;;;5084160;28;24821;-60
2021/10/19 07:47:28;;;;;;;16.90;15.30;;;;;;;;;;5085702;28;24444;-60
2021/10/19 07:49:53;;;;;;;14.07;12.77;;;;;;;;;;5083284;28;24394;-60
2021/10/19 07:52:18;;;;;;;15.93;14.23;;;;;;;;;;5080624;28;24393;-60
2021/10/19 07:54:43;;;;;;;14.40;13.00;;;;;;;;;;5079858;28;24939;-60
2021/10/19 07:57:08;;;;;;;16.50;14.90;;;;;;;;;;5091747;28;24464;-61
2021/10/19 07:59:33;;;;;;;14.98;13.68;;;;;;;;;;5106000;28;24970;-60
2021/10/19 08:01:59;;;;;;;15.90;14.30;;;;;;;;;;5104047;28;24454;-60
2021/10/19 08:04:24;;;;;;;14.30;13.00;;;;;;;;;;5102385;28;24390;-60
2021/10/19 08:06:49;;;;;;;14.20;12.80;;;;;;;;;;5102472;28;24951;-60
2021/10/19 08:09:14;;;;;;;15.00;13.60;;;;;;;;;;5101961;28;24508;-60
2021/10/19 08:11:39;;;;;;;15.48;14.07;;;;;;;;;;5103963;28;24434;-60
2021/10/19 08:14:04;;;;;;;15.57;13.98;;;;;;;;;;5104262;28;24396;-60
2021/10/19 08:16:30;;;;;;;13.02;11.73;;;;;;;;;;5105673;28;24985;-60
2021/10/19 08:18:55;;;;;;;14.67;13.47;;;;;;;;;;5103360;28;24466;-60
2021/10/19 08:21:20;;;;;;;15.20;13.80;;;;;;;;;;5100412;28;24398;-60
2021/10/19 08:23:46;;;;;;;14.70;13.30;;;;;;;;;;5099849;28;24442;-60
2021/10/19 08:26:11;;;;;;;14.00;12.63;;;;;;;;;;5105224;28;25332;-60
2021/10/19 08:28:39;;;;;;;14.37;13.00;;;;;;;;;;5105089;28;24402;-59
2021/10/19 08:31:06;;;;;;;14.63;13.32;;;;;;;;;;5103728;28;24417;-59
2021/10/19 08:33:32;;;;;;;13.45;12.15;;;;;;;;;;5103440;28;24941;-59
2021/10/19 08:35:57;;;;;;;12.87;11.77;;;;;;;;;;5101217;28;24498;-59
2021/10/19 08:38:22;;;;;;;14.87;13.57;;;;;;;;;;5099356;28;24416;-59
2021/10/19 08:40:47;;;;;;;13.40;12.00;;;;;;;;;;5103175;28;24398;-59
2021/10/19 08:43:14;;;;;;;13.35;12.07;;;;;;;;;;5105170;28;24930;-59
2021/10/19 08:45:39;;;;;;;13.13;11.93;;;;;;;;;;5105184;28;24409;-60
2021/10/19 08:48:07;;;;;;;11.18;10.18;;;;;;;;;;5103229;28;24390;-59
2021/10/19 08:50:32;;;;;;;12.85;11.75;;;;;;;;;;5099693;28;24485;-59
2021/10/19 08:52:57;;;;;;;15.10;13.60;;;;;;;;;;5100801;28;24532;-59
2021/10/19 08:55:23;;;;;;;13.37;12.07;;;;;;;;;;5101368;28;24435;-60
2021/10/19 08:57:48;;;;;;;14.83;13.43;;;;;;;;;;5092476;28;24426;-60
2021/10/19 09:00:14;;;;;;;14.10;12.80;;;;;;;;;;5081664;28;24405;-60
2021/10/19 09:02:49;;;;;;;14.53;13.13;;;;;;;;;;5084409;28;24495;-60
2021/10/19 09:05:20;;;;;;;13.95;12.75;;;;;;;;;;5080421;28;24900;-60
2021/10/19 09:07:58;;;;;;;13.50;12.25;;;;;;;;;;5078396;28;24394;-59
2021/10/19 09:10:24;;;;;;;11.98;10.88;;;;;;;;;;5080761;28;24986;-60
2021/10/19 09:12:56;;;;;;;13.32;12.13;;;;;;;;;;5084314;28;24402;-60
2021/10/19 09:15:23;;;;;;;14.30;13.07;;;;;;;;;;5082576;28;24944;-60
2021/10/19 09:17:49;;;;;;;12.63;11.52;;;;;;;;;;5083901;28;24426;-60
2021/10/19 09:20:15;;;;;;;15.03;13.73;;;;;;;;;;5080163;28;24394;-60
2021/10/19 09:22:50;;;;;;;13.80;12.50;;;;;;;;;;5078424;28;24385;-60
2021/10/19 09:25:22;;;;;;;12.73;11.63;;;;;;;;;;5080481;28;24405;-60
2021/10/19 09:27:47;;;;;;;13.80;12.40;;;;;;;;;;5083858;28;24407;-59
2021/10/19 09:30:12;;;;;;;13.10;11.80;;;;;;;;;;5081740;28;24452;-60
2021/10/19 09:32:38;;;;;;;13.27;12.10;;;;;;;;;;5083467;28;24953;-60
2021/10/19 09:35:03;;;;;;;13.20;11.93;;;;;;;;;;5080199;28;24406;-60
2021/10/19 09:37:28;;;;;;;13.60;12.40;;;;;;;;;;5078123;28;24406;-60
2021/10/19 09:39:53;;;;;;;11.98;10.98;;;;;;;;;;5079728;28;24405;-60
2021/10/19 09:42:26;;;;;;;13.47;12.30;;;;;;;;;;5084181;28;24471;-60
2021/10/19 09:44:59;;;;;;;12.50;11.30;;;;;;;;;;5083711;28;24919;-60
2021/10/19 09:47:37;;;;;;;11.63;10.63;;;;;;;;;;5083660;28;24493;-60
2021/10/19 09:50:06;;;;;;;12.82;11.63;;;;;;;;;;5080235;28;24420;-59
2021/10/19 09:52:34;;;;;;;12.75;11.45;;;;;;;;;;5078420;28;24762;-60
2021/10/19 09:54:59;;;;;;;12.20;11.10;;;;;;;;;;5079875;28;24390;-60
2021/10/19 09:57:24;;;;;;;12.68;11.48;;;;;;;;;;5092162;28;25032;-60
2021/10/19 09:59:49;;;;;;;12.52;11.32;;;;;;;;;;5103548;28;24485;-60
2021/10/19 10:02:15;;;;;;;10.77;9.83;;;;;;;;;;5101989;28;24390;-60
2021/10/19 10:04:43;;;;;;;11.00;10.00;;;;;;;;;;5102027;28;25603;-60
2021/10/19 10:07:11;;;;;;;10.13;9.23;;;;;;;;;;5098323;28;24510;-60
2021/10/19 10:09:37;;;;;;;10.68;9.77;;;;;;;;;;5100073;28;24462;-60
2021/10/19 10:12:06;;;;;;;9.85;8.95;;;;;;;;;;5104033;28;24401;-60
2021/10/19 10:14:44;;;;;;;10.35;9.35;;;;;;;;;;5108041;28;24390;-60
2021/10/19 10:17:10;;;;;;;12.00;10.90;;;;;;;;;;5106066;28;24410;-59
2021/10/19 10:19:35;;;;;;;10.95;9.95;;;;;;;;;;5104026;28;24424;-60
2021/10/19 10:22:03;;;;;;;11.30;10.20;;;;;;;;;;5103990;28;24540;-60
2021/10/19 10:24:29;;;;;;;10.55;9.65;;;;;;;;;;5104122;28;24560;-60
2021/10/19 10:27:04;;;;;;;11.73;10.63;;;;;;;;;;5105497;28;24387;-58
2021/10/19 10:29:40;;;;;;;11.73;10.73;;;;;;;;;;5107265;28;24417;-58
2021/10/19 10:32:06;;;;;;;11.55;10.55;;;;;;;;;;5105848;28;24385;-58
2021/10/19 10:34:32;;;;;;;9.98;9.07;;;;;;;;;;5104081;28;24509;-58
2021/10/19 10:37:11;;;;;;;11.15;10.15;;;;;;;;;;5103447;28;24506;-59
2021/10/19 10:39:39;;;;;;;10.80;9.90;;;;;;;;;;5103414;28;24394;-60
2021/10/19 10:42:09;;;;;;;10.90;10.00;;;;;;;;;;5106534;28;24397;-59
2021/10/19 10:44:35;;;;;;;10.82;9.93;;;;;;;;;;5107490;28;24562;-60
2021/10/19 10:47:04;;;;;;;11.00;10.00;;;;;;;;;;5105428;28;24434;-59
2021/10/19 10:49:30;;;;;;;10.98;9.98;;;;;;;;;;5103306;28;24437;-59
2021/10/19 10:51:55;;;;;;;10.30;9.50;;;;;;;;;;5103283;28;24768;-60
2021/10/19 10:54:21;;;;;;;11.23;10.13;;;;;;;;;;5101866;28;25192;-59
2021/10/19 10:56:48;;;;;;;10.65;9.70;;;;;;;;;;5101458;28;24531;-60
2021/10/19 10:59:27;;;;;;;12.50;11.20;;;;;;;;;;5086485;28;24406;-60
2021/10/19 11:01:54;;;;;;;11.23;10.25;;;;;;;;;;5086687;28;24818;-59
2021/10/19 11:04:19;;;;;;;10.07;9.18;;;;;;;;;;5083077;28;24460;-60
2021/10/19 11:06:44;;;;;;;10.20;9.30;;;;;;;;;;5081013;28;24920;-60
2021/10/19 11:09:11;;;;;;;10.88;9.77;;;;;;;;;;5082594;28;24382;-60
2021/10/19 11:11:38;;;;;;;10.18;9.38;;;;;;;;;;5086732;28;24748;-60
2021/10/19 11:14:08;;;;;;;10.55;9.55;;;;;;;;;;5084712;28;24932;-59
2021/10/19 11:16:33;;;;;;;11.73;10.63;;;;;;;;;;5086548;28;24398;-59
2021/10/19 11:19:24;;;;;;;10.80;9.90;;;;;;;;;;5082112;28;24506;-60
2021/10/19 11:21:54;;;;;;;9.00;8.20;;;;;;;;;;5080865;28;24410;-59
2021/10/19 11:24:20;;;;;;;9.52;8.68;;;;;;;;;;5081640;28;24936;-60
2021/10/19 11:26:45;;;;;;;9.85;9.05;;;;;;;;;;5084244;28;24535;-60
2021/10/19 11:29:11;;;;;;;9.43;8.63;;;;;;;;;;5085884;28;24402;-60
2021/10/19 11:31:38;;;;;;;10.37;9.37;;;;;;;;;;5085736;28;24423;-58
2021/10/19 11:34:03;;;;;;;9.50;8.70;;;;;;;;;;5084217;28;24402;-59
2021/10/19 11:36:29;;;;;;;9.97;9.07;;;;;;;;;;5067329;28;24430;-59
2021/10/19 11:38:58;;;;;;;10.53;9.63;;;;;;;;;;5080888;28;24548;-59
2021/10/19 11:41:26;;;;;;;10.63;9.68;;;;;;;;;;5085968;28;24951;-59
2021/10/19 11:43:53;;;;;;;10.48;9.48;;;;;;;;;;5085727;28;24400;-59
2021/10/19 11:46:19;;;;;;;10.73;9.73;;;;;;;;;;5083937;28;25217;-59
2021/10/19 11:48:48;;;;;;;9.80;9.00;;;;;;;;;;5083659;28;24954;-59
2021/10/19 11:51:15;;;;;;;9.40;8.60;;;;;;;;;;5080272;28;24552;-60
2021/10/19 11:53:44;;;;;;;9.15;8.35;;;;;;;;;;5080191;28;24391;-60
2021/10/19 11:56:10;;;;;;;9.90;9.00;;;;;;;;;;5092038;28;24806;-60
2021/10/19 11:58:35;;;;;;;9.15;8.27;;;;;;;;;;5105758;28;24406;-60
2021/10/19 12:01:01;;;;;;;9.40;8.40;;;;;;;;;;5103933;28;24477;-59
2021/10/19 12:03:32;;;;;;;8.48;7.78;;;;;;;;;;5105872;28;24915;-59
2021/10/19 12:05:57;;;;;;;10.30;9.40;;;;;;;;;;5101807;28;24482;-59
2021/10/19 12:08:27;;;;;;;9.80;8.93;;;;;;;;;;5100247;28;24783;-59
2021/10/19 12:10:52;;;;;;;9.57;8.68;;;;;;;;;;5102107;28;24381;-58
2021/10/19 12:13:19;;;;;;;7.60;7.00;;;;;;;;;;5105753;28;24450;-58
2021/10/19 12:15:53;;;;;;;8.98;8.20;;;;;;;;;;5105673;28;24945;-58
2021/10/19 12:18:18;;;;;;;9.63;8.77;;;;;;;;;;5103350;28;24927;-59
2021/10/19 12:20:45;;;;;;;7.37;6.77;;;;;;;;;;5101372;28;24959;-59
2021/10/19 12:23:11;;;;;;;10.00;9.10;;;;;;;;;;5099715;28;24406;-59
2021/10/19 12:25:47;;;;;;;8.65;7.85;;;;;;;;;;5103689;28;24511;-59
2021/10/19 12:28:30;;;;;;;9.68;8.88;;;;;;;;;;5105534;28;24390;-59
2021/10/19 12:30:57;;;;;;;10.13;9.23;;;;;;;;;;5104639;28;25031;-59
2021/10/19 12:33:26;;;;;;;10.32;9.43;;;;;;;;;;5101415;28;24527;-59
2021/10/19 12:36:00;;;;;;;9.20;8.30;;;;;;;;;;5101513;28;24457;-59
2021/10/19 12:38:31;;;;;;;9.90;9.10;;;;;;;;;;5099329;28;24416;-59
2021/10/19 12:41:03;;;;;;;9.85;8.93;;;;;;;;;;5102853;28;24954;-59
2021/10/19 12:43:30;;;;;;;9.93;9.00;;;;;;;;;;5104511;28;24812;-60
2021/10/19 12:45:56;;;;;;;9.30;8.60;;;;;;;;;;5104635;28;24939;-59
2021/10/19 12:48:21;;;;;;;9.23;8.43;;;;;;;;;;5101415;28;25092;-59
2021/10/19 12:50:46;;;;;;;10.33;9.43;;;;;;;;;;5099547;28;25363;-59
2021/10/19 12:53:11;;;;;;;9.77;8.97;;;;;;;;;;5101504;28;24494;-59
2021/10/19 12:55:36;;;;;;;9.73;8.73;;;;;;;;;;5099162;28;24480;-59
2021/10/19 12:58:01;;;;;;;10.07;9.13;;;;;;;;;;5082530;28;24414;-57
2021/10/19 13:00:27;;;;;;;10.90;9.80;;;;;;;;;;5084382;28;24390;-58
2021/10/19 13:02:52;;;;;;;11.73;10.60;;;;;;;;;;5084298;28;24757;-59
2021/10/19 13:05:18;;;;;;;8.40;7.60;;;;;;;;;;5078989;28;24555;-59
2021/10/19 13:07:45;;;;;;;7.25;6.65;;;;;;;;;;5078557;28;24502;-59
2021/10/19 13:10:11;;;;;;;8.98;8.18;;;;;;;;;;5082230;28;24970;-59
2021/10/19 13:12:36;;;;;;;8.43;7.63;;;;;;;;;;5084286;28;24493;-59
2021/10/19 13:15:01;;;;;;;9.18;8.38;;;;;;;;;;5082484;28;24437;-59
2021/10/19 13:17:26;;;;;;;9.67;8.77;;;;;;;;;;5084075;28;24867;-58
2021/10/19 13:19:51;;;;;;;12.32;11.23;;;;;;;;;;5080380;28;24959;-58
2021/10/19 13:22:16;;;;;;;12.07;10.00;;;;;;;;;;5078644;28;24942;-59
2021/10/19 13:24:42;;;;;;;11.35;10.27;;;;;;;;;;5080258;28;24443;-59
2021/10/19 13:27:07;;;;;;;13.05;10.65;;;;;;;;;;5083884;28;24382;-59
2021/10/19 13:29:32;;;;;;;10.80;9.80;;;;;;;;;;5083845;28;24884;-58
2021/10/19 13:31:58;;;;;;;12.13;10.83;;;;;;;;;;5083575;28;24952;-59
2021/10/19 13:34:23;;;;;;;9.88;9.07;;;;;;;;;;5078930;28;25070;-60
2021/10/19 13:36:50;;;;;;;12.30;11.10;;;;;;;;;;5080112;28;24379;-59
2021/10/19 13:39:15;;;;;;;10.57;9.63;;;;;;;;;;5077990;28;24532;-59
2021/10/19 13:41:41;;;;;;;10.40;9.50;;;;;;;;;;5083201;28;24493;-59
2021/10/19 13:44:06;;;;;;;10.10;9.10;;;;;;;;;;5084109;28;24390;-60
2021/10/19 13:46:31;;;;;;;10.73;9.77;;;;;;;;;;5083309;28;24528;-60
2021/10/19 13:48:56;;;;;;;11.30;10.17;;;;;;;;;;5083518;28;24395;-59
2021/10/19 13:51:21;;;;;;;11.32;10.30;;;;;;;;;;5078680;28;24398;-60
2021/10/19 13:53:48;;;;;;;9.35;8.55;;;;;;;;;;5078259;28;25055;-60
2021/10/19 13:56:13;;;;;;;9.30;8.40;;;;;;;;;;5086947;28;24946;-60
2021/10/19 13:58:38;;;;;;;10.00;9.10;;;;;;;;;;5103789;28;24449;-59
2021/10/19 14:01:04;;;;;;;9.90;8.90;;;;;;;;;;5101751;28;24461;-57
2021/10/19 14:03:29;;;;;;;9.90;8.90;;;;;;;;;;5102215;28;24743;-58
2021/10/19 14:05:54;;;;;;;10.13;9.23;;;;;;;;;;5100034;28;24421;-58
2021/10/19 14:08:19;;;;;;;11.25;10.15;;;;;;;;;;5098154;28;24398;-58
2021/10/19 14:10:44;;;;;;;9.95;9.13;;;;;;;;;;5099880;28;24501;-59
2021/10/19 14:13:09;;;;;;;11.73;10.60;;;;;;;;;;5103902;28;24455;-58
2021/10/19 14:15:35;;;;;;;9.60;8.80;;;;;;;;;;5103672;28;24950;-60